Time,TemperatureF,DewpointF,PressureIn,WindDirection,WindDirectionDegrees,WindSpeedMPH,WindSpeedGustMPH,Humidity,HourlyPrecipIn,Conditions,Clouds,dailyrainin,SoftwareType,DateUTC
2013-02-27 00:00:00,48.4,47.8,29.62,WSW,248,11.0,11.0,98,0.00,,,0.66,VWS V14.01,2013-02-27 05:00:00,
2013-02-27 00:05:00,48.0,47.2,29.62,West,270,6.0,6.0,97,0.00,,,0.00,VWS V14.01,2013-02-27 05:05:00,
2013-02-27 00:10:00,47.8,46.8,29.62,West,270,8.5,8.5,96,0.00,,,0.00,VWS V14.01,2013-02-27 05:10:00,
2013-02-27 00:15:00,47.5,46.4,29.62,WSW,248,14.8,14.8,96,0.00,,,0.00,VWS V14.01,2013-02-27 05:15:00,
2013-02-27 00:20:00,47.3,45.7,29.62,WSW,248,8.5,8.5,94,0.00,,,0.00,VWS V14.01,2013-02-27 05:20:00,
2013-02-27 00:25:00,46.9,45.0,29.62,WSW,248,5.4,5.4,93,0.00,,,0.00,VWS V14.01,2013-02-27 05:25:00,
2013-02-27 00:30:00,46.4,43.6,29.62,SW,225,8.7,8.7,90,0.00,,,0.00,VWS V14.01,2013-02-27 05:30:00,
2013-02-27 00:35:00,46.0,42.7,29.59,WNW,292,11.0,11.0,88,0.00,,,0.00,VWS V14.01,2013-02-27 05:35:00,
2013-02-27 00:40:00,45.9,41.9,29.59,WNW,292,4.0,4.0,86,0.00,,OVC004,0.00,VWS V14.01,2013-02-27 05:40:00,
2013-02-27 00:46:00,45.3,41.7,29.59,WNW,292,11.2,11.2,87,0.00,,OVC004,0.00,VWS V14.01,2013-02-27 05:46:00,
2013-02-27 00:51:00,45.1,41.2,29.62,WSW,248,4.3,4.3,86,0.00,,OVC004,0.00,VWS V14.01,2013-02-27 05:51:00,
2013-02-27 00:56:00,44.6,40.4,29.62,West,270,5.8,5.8,85,0.00,,OVC006,0.00,VWS V14.01,2013-02-27 05:56:00,
2013-02-27 01:01:00,44.4,40.2,29.62,West,270,3.8,3.8,85,0.00,,OVC006,0.00,VWS V14.01,2013-02-27 06:01:00,
2013-02-27 01:06:00,44.2,40.0,29.62,SW,225,5.4,5.4,85,0.00,,OVC006,0.00,VWS V14.01,2013-02-27 06:06:00,
2013-02-27 01:11:00,44.2,40.0,29.62,SW,225,4.9,4.9,85,0.00,,OVC006,0.00,VWS V14.01,2013-02-27 06:11:00,
2013-02-27 01:16:00,44.1,39.5,29.62,WSW,248,8.5,8.5,84,0.00,,OVC006,0.00,VWS V14.01,2013-02-27 06:16:00,
2013-02-27 01:21:00,43.5,39.0,29.62,WSW,248,5.6,5.6,84,0.00,,OVC006,0.00,VWS V14.01,2013-02-27 06:21:00,
2013-02-27 01:26:00,43.5,39.3,29.62,WSW,248,7.6,7.6,85,0.00,,OVC006,0.00,VWS V14.01,2013-02-27 06:26:00,
2013-02-27 01:31:00,43.0,39.1,29.62,SSW,202,7.8,7.8,86,0.00,,OVC006,0.00,VWS V14.01,2013-02-27 06:31:00,
2013-02-27 01:36:00,43.0,39.4,29.62,SSW,202,4.7,4.7,87,0.00,,OVC006,0.00,VWS V14.01,2013-02-27 06:36:00,
2013-02-27 01:41:00,42.8,38.9,29.62,WSW,248,6.5,6.5,86,0.00,,OVC006,0.00,VWS V14.01,2013-02-27 06:41:00,
2013-02-27 01:46:00,43.0,38.5,29.62,SSW,202,6.7,6.7,84,0.00,,OVC006,0.00,VWS V14.01,2013-02-27 06:46:00,
2013-02-27 01:51:00,43.0,36.9,29.62,WSW,248,7.2,7.2,79,0.00,,FEW009,0.00,VWS V14.01,2013-02-27 06:51:00,
2013-02-27 01:56:00,42.6,35.6,29.62,SW,225,6.3,6.3,76,0.00,,FEW009,0.00,VWS V14.01,2013-02-27 06:56:00,
2013-02-27 02:01:00,43.0,34.6,29.62,SW,225,7.6,7.6,72,0.00,,FEW009,0.00,VWS V14.01,2013-02-27 07:01:00,
2013-02-27 02:06:00,42.8,33.3,29.62,West,270,4.0,4.0,69,0.00,,FEW009,0.00,VWS V14.01,2013-02-27 07:06:00,
2013-02-27 02:11:00,42.4,33.0,29.62,West,270,6.5,6.5,69,0.00,,FEW009,0.00,VWS V14.01,2013-02-27 07:11:00,
2013-02-27 02:16:00,42.4,33.0,29.62,WSW,248,8.7,8.7,69,0.00,,FEW009,0.00,VWS V14.01,2013-02-27 07:16:00,
2013-02-27 02:22:00,42.6,32.8,29.59,WSW,248,6.3,6.3,68,0.00,,FEW009,0.00,VWS V14.01,2013-02-27 07:22:00,
2013-02-27 02:27:00,42.4,32.3,29.59,SW,225,6.5,6.5,67,0.00,,FEW009,0.00,VWS V14.01,2013-02-27 07:27:00,
2013-02-27 02:32:00,42.4,31.9,29.59,WSW,248,6.7,6.7,66,0.00,,FEW009,0.00,VWS V14.01,2013-02-27 07:32:00,
2013-02-27 02:37:00,42.1,31.9,29.59,WSW,248,6.5,6.5,67,0.00,,CLR,0.00,VWS V14.01,2013-02-27 07:37:00,
2013-02-27 02:42:00,42.1,31.9,29.59,WSW,248,8.1,8.1,67,0.00,,CLR,0.00,VWS V14.01,2013-02-27 07:42:00,
2013-02-27 02:47:00,42.1,31.6,29.59,WSW,248,8.1,8.1,66,0.00,,CLR,0.00,VWS V14.01,2013-02-27 07:47:00,
2013-02-27 02:52:00,41.7,31.2,29.59,SW,225,7.4,7.4,66,0.00,,CLR,0.00,VWS V14.01,2013-02-27 07:52:00,
2013-02-27 02:57:00,41.7,30.8,29.59,WSW,248,7.6,7.6,65,0.00,,CLR,0.00,VWS V14.01,2013-02-27 07:57:00,
2013-02-27 03:02:00,41.7,30.8,29.59,WSW,248,5.6,5.6,65,0.00,,CLR,0.00,VWS V14.01,2013-02-27 08:02:00,
2013-02-27 03:07:00,41.5,30.7,29.59,SW,225,6.5,6.5,65,0.00,,CLR,0.00,VWS V14.01,2013-02-27 08:07:00,
2013-02-27 03:12:00,41.5,30.7,29.59,SW,225,6.0,6.0,65,0.00,,CLR,0.00,VWS V14.01,2013-02-27 08:12:00,
2013-02-27 03:17:00,41.5,30.7,29.59,West,270,7.6,7.6,65,0.00,,CLR,0.00,VWS V14.01,2013-02-27 08:17:00,
2013-02-27 03:22:00,41.5,29.9,29.59,WSW,248,8.5,8.5,63,0.00,,CLR,0.00,VWS V14.01,2013-02-27 08:22:00,
2013-02-27 03:27:00,41.4,30.1,29.59,West,270,10.7,10.7,64,0.00,,CLR,0.00,VWS V14.01,2013-02-27 08:27:00,
2013-02-27 03:32:00,41.5,29.5,29.59,West,270,8.7,8.7,62,0.00,,CLR,0.00,VWS V14.01,2013-02-27 08:32:00,
2013-02-27 03:37:00,41.0,29.4,29.59,WSW,248,5.4,5.4,63,0.00,,CLR,0.00,VWS V14.01,2013-02-27 08:37:00,
2013-02-27 03:42:00,41.4,29.3,29.59,West,270,8.5,8.5,62,0.00,,CLR,0.00,VWS V14.01,2013-02-27 08:42:00,
2013-02-27 03:47:00,41.2,29.2,29.59,WNW,292,6.5,6.5,62,0.00,,CLR,0.00,VWS V14.01,2013-02-27 08:47:00,
2013-02-27 03:53:00,41.2,29.2,29.59,WSW,248,8.7,8.7,62,0.00,,CLR,0.00,VWS V14.01,2013-02-27 08:53:00,
2013-02-27 03:58:00,41.0,29.0,29.59,WSW,248,7.6,7.6,62,0.00,,CLR,0.00,VWS V14.01,2013-02-27 08:58:00,
2013-02-27 04:03:00,41.0,29.0,29.59,WSW,248,6.0,6.0,62,0.00,,CLR,0.00,VWS V14.01,2013-02-27 09:03:00,
2013-02-27 04:08:00,41.0,28.6,29.62,WNW,292,6.0,6.0,61,0.00,,CLR,0.00,VWS V14.01,2013-02-27 09:08:00,
2013-02-27 04:13:00,41.0,28.6,29.62,WSW,248,10.3,10.3,61,0.00,,CLR,0.00,VWS V14.01,2013-02-27 09:13:00,
2013-02-27 04:18:00,40.5,28.5,29.62,West,270,5.4,5.4,62,0.00,,CLR,0.00,VWS V14.01,2013-02-27 09:18:00,
2013-02-27 04:23:00,40.8,28.8,29.62,West,270,7.8,7.8,62,0.00,,CLR,0.00,VWS V14.01,2013-02-27 09:23:00,
2013-02-27 04:28:00,40.6,28.6,29.62,WSW,248,14.8,14.8,62,0.00,,CLR,0.00,VWS V14.01,2013-02-27 09:28:00,
2013-02-27 04:33:00,40.6,28.3,29.62,WSW,248,8.5,8.5,61,0.00,,CLR,0.00,VWS V14.01,2013-02-27 09:33:00,
2013-02-27 04:38:00,40.5,28.5,29.62,West,270,7.4,7.4,62,0.00,,CLR,0.00,VWS V14.01,2013-02-27 09:38:00,
2013-02-27 04:43:00,40.6,28.3,29.62,WSW,248,9.8,9.8,61,0.00,,CLR,0.00,VWS V14.01,2013-02-27 09:43:00,
2013-02-27 04:48:00,40.3,27.9,29.62,WSW,248,5.6,5.6,61,0.00,,CLR,0.00,VWS V14.01,2013-02-27 09:48:00,
2013-02-27 04:53:00,40.5,28.1,29.62,WSW,248,6.0,6.0,61,0.00,,CLR,0.00,VWS V14.01,2013-02-27 09:53:00,
2013-02-27 04:58:00,40.1,27.8,29.62,West,270,6.5,6.5,61,0.00,,CLR,0.00,VWS V14.01,2013-02-27 09:58:00,
2013-02-27 05:03:00,39.9,27.6,29.62,WSW,248,5.4,5.4,61,0.00,,CLR,0.00,VWS V14.01,2013-02-27 10:03:00,
2013-02-27 05:08:00,39.7,27.4,29.62,WSW,248,2.0,2.0,61,0.00,,CLR,0.00,VWS V14.01,2013-02-27 10:08:00,
2013-02-27 05:13:00,39.9,27.6,29.62,WSW,248,5.8,5.8,61,0.00,,CLR,0.00,VWS V14.01,2013-02-27 10:13:00,
2013-02-27 05:18:00,40.1,27.8,29.62,WSW,248,9.8,9.8,61,0.00,,CLR,0.00,VWS V14.01,2013-02-27 10:18:00,
2013-02-27 05:23:00,39.7,27.4,29.62,WSW,248,4.0,4.0,61,0.00,,CLR,0.00,VWS V14.01,2013-02-27 10:23:00,
2013-02-27 05:28:00,39.7,27.4,29.62,West,270,3.8,3.8,61,0.00,,CLR,0.00,VWS V14.01,2013-02-27 10:28:00,
2013-02-27 05:33:00,39.7,27.0,29.62,WNW,292,10.3,10.3,60,0.00,,CLR,0.00,VWS V14.01,2013-02-27 10:33:00,
2013-02-27 05:38:00,39.0,26.7,29.65,WSW,248,3.6,3.6,61,0.00,,CLR,0.00,VWS V14.01,2013-02-27 10:38:00,
2013-02-27 05:43:00,39.6,26.8,29.65,West,270,3.6,3.6,60,0.00,,CLR,0.00,VWS V14.01,2013-02-27 10:43:00,
2013-02-27 05:48:00,39.2,26.9,29.65,WSW,248,3.4,3.4,61,0.00,,CLR,0.00,VWS V14.01,2013-02-27 10:48:00,
2013-02-27 05:53:00,39.2,27.3,29.65,WSW,248,6.3,6.3,62,0.00,,CLR,0.00,VWS V14.01,2013-02-27 10:53:00,
2013-02-27 05:58:00,39.2,26.9,29.65,WSW,248,3.6,3.6,61,0.00,,CLR,0.00,VWS V14.01,2013-02-27 10:58:00,
2013-02-27 06:03:00,39.2,26.5,29.65,WSW,248,2.9,2.9,60,0.00,,CLR,0.00,VWS V14.01,2013-02-27 11:03:00,
2013-02-27 06:08:00,39.0,26.7,29.65,West,270,2.9,2.9,61,0.00,,CLR,0.00,VWS V14.01,2013-02-27 11:08:00,
2013-02-27 06:13:00,38.5,25.8,29.65,WSW,248,4.7,4.7,60,0.00,,CLR,0.00,VWS V14.01,2013-02-27 11:13:00,
2013-02-27 06:18:00,38.8,37.3,29.65,WSW,248,5.4,5.4,94,0.00,,CLR,0.00,VWS V14.01,2013-02-27 11:18:00,
2013-02-27 06:23:00,38.7,37.1,29.68,WSW,248,4.9,4.9,94,0.00,,CLR,0.00,VWS V14.01,2013-02-27 11:23:00,
2013-02-27 06:28:00,38.5,36.9,29.68,WSW,248,3.4,3.4,94,0.00,,CLR,0.00,VWS V14.01,2013-02-27 11:28:00,
2013-02-27 06:33:00,38.7,37.3,29.68,NW,315,3.6,3.6,95,0.00,,CLR,0.00,VWS V14.01,2013-02-27 11:33:00,
2013-02-27 06:39:00,39.0,37.4,29.68,West,270,8.1,8.1,94,0.00,,CLR,0.00,VWS V14.01,2013-02-27 11:39:00,
2013-02-27 06:44:00,38.7,37.1,29.68,WSW,248,5.6,5.6,94,0.00,,CLR,0.00,VWS V14.01,2013-02-27 11:44:00,
2013-02-27 06:49:00,38.5,36.9,29.68,WNW,292,3.8,3.8,94,0.00,,CLR,0.00,VWS V14.01,2013-02-27 11:49:00,
2013-02-27 06:54:00,38.5,36.9,29.65,WSW,248,4.0,4.0,94,0.00,,CLR,0.00,VWS V14.01,2013-02-27 11:54:00,
2013-02-27 06:59:00,38.7,36.8,29.65,West,270,5.4,5.4,93,0.00,,CLR,0.00,VWS V14.01,2013-02-27 11:59:00,
2013-02-27 07:04:00,38.3,36.5,29.65,WSW,248,5.4,5.4,93,0.00,,CLR,0.00,VWS V14.01,2013-02-27 12:04:00,
2013-02-27 07:09:00,38.1,36.3,29.65,WSW,248,2.5,2.5,93,0.00,,CLR,0.00,VWS V14.01,2013-02-27 12:09:00,
2013-02-27 07:14:00,37.9,36.4,29.65,West,270,3.4,3.4,94,0.00,,CLR,0.00,VWS V14.01,2013-02-27 12:14:00,
2013-02-27 07:19:00,37.8,36.5,29.65,West,270,3.1,3.1,95,0.00,,CLR,0.00,VWS V14.01,2013-02-27 12:19:00,
2013-02-27 07:24:00,37.8,36.5,29.65,WSW,248,3.8,3.8,95,0.00,,CLR,0.00,VWS V14.01,2013-02-27 12:24:00,
2013-02-27 07:29:00,38.3,36.5,29.65,West,270,3.8,3.8,93,0.00,,CLR,0.00,VWS V14.01,2013-02-27 12:29:00,
2013-02-27 07:34:00,38.1,36.3,29.65,WSW,248,3.1,3.1,93,0.00,,CLR,0.00,VWS V14.01,2013-02-27 12:34:00,
2013-02-27 07:39:00,38.5,36.9,29.68,WNW,292,4.0,4.0,94,0.00,,CLR,0.00,VWS V14.01,2013-02-27 12:39:00,
2013-02-27 07:44:00,38.8,37.0,29.68,WSW,248,3.8,3.8,93,0.00,,CLR,0.00,VWS V14.01,2013-02-27 12:44:00,
2013-02-27 07:49:00,39.2,37.3,29.68,West,270,5.4,5.4,93,0.00,,CLR,0.00,VWS V14.01,2013-02-27 12:49:00,
2013-02-27 07:54:00,39.7,37.3,29.71,West,270,3.8,3.8,91,0.00,,CLR,0.00,VWS V14.01,2013-02-27 12:54:00,
2013-02-27 07:59:00,39.9,37.0,29.71,West,270,6.3,6.3,89,0.00,,CLR,0.00,VWS V14.01,2013-02-27 12:59:00,
2013-02-27 08:04:00,40.5,37.2,29.71,West,270,4.9,4.9,88,0.00,,CLR,0.00,VWS V14.01,2013-02-27 13:04:00,
2013-02-27 08:09:00,40.8,37.5,29.71,WSW,248,6.3,6.3,88,0.00,,CLR,0.00,VWS V14.01,2013-02-27 13:09:00,
2013-02-27 08:14:00,41.0,37.1,29.71,West,270,5.4,5.4,86,0.00,,CLR,0.00,VWS V14.01,2013-02-27 13:14:00,
2013-02-27 08:19:00,41.2,37.0,29.71,WSW,248,5.6,5.6,85,0.00,,CLR,0.00,VWS V14.01,2013-02-27 13:19:00,
2013-02-27 08:24:00,41.7,37.2,29.71,WSW,248,6.0,6.0,84,0.00,,CLR,0.00,VWS V14.01,2013-02-27 13:24:00,
2013-02-27 08:29:00,42.1,37.6,29.71,WNW,292,9.8,9.8,84,0.00,,CLR,0.00,VWS V14.01,2013-02-27 13:29:00,
2013-02-27 08:34:00,42.4,37.7,29.74,WSW,248,7.8,7.8,83,0.00,,CLR,0.00,VWS V14.01,2013-02-27 13:34:00,
2013-02-27 08:40:00,42.6,37.2,29.74,West,270,9.6,9.6,81,0.00,,CLR,0.00,VWS V14.01,2013-02-27 13:40:00,
2013-02-27 08:45:00,43.0,37.2,29.74,WSW,248,10.1,10.1,80,0.00,,CLR,0.00,VWS V14.01,2013-02-27 13:45:00,
2013-02-27 08:50:00,43.5,38.1,29.74,West,270,6.0,6.0,81,0.00,,CLR,0.00,VWS V14.01,2013-02-27 13:50:00,
2013-02-27 08:55:00,43.3,37.3,29.74,WNW,292,10.3,10.3,79,0.00,,CLR,0.00,VWS V14.01,2013-02-27 13:55:00,
2013-02-27 09:00:00,44.1,38.0,29.74,WSW,248,7.6,7.6,79,0.00,,CLR,0.00,VWS V14.01,2013-02-27 14:00:00,
2013-02-27 09:05:00,44.6,38.5,29.74,WNW,292,5.6,5.6,79,0.00,,CLR,0.00,VWS V14.01,2013-02-27 14:05:00,
2013-02-27 09:10:00,44.8,38.0,29.74,WSW,248,5.4,5.4,77,0.00,,CLR,0.00,VWS V14.01,2013-02-27 14:10:00,
2013-02-27 09:15:00,45.3,38.9,29.74,West,270,7.4,7.4,78,0.00,,CLR,0.00,VWS V14.01,2013-02-27 14:15:00,
2013-02-27 09:20:00,46.4,40.2,29.74,WSW,248,5.4,5.4,79,0.00,,CLR,0.00,VWS V14.01,2013-02-27 14:20:00,
2013-02-27 09:25:00,46.0,39.2,29.74,West,270,8.7,8.7,77,0.00,,CLR,0.00,VWS V14.01,2013-02-27 14:25:00,
2013-02-27 09:30:00,45.9,38.7,29.74,WSW,248,7.4,7.4,76,0.00,,CLR,0.00,VWS V14.01,2013-02-27 14:30:00,
2013-02-27 09:35:00,46.4,39.3,29.74,WSW,248,5.6,5.6,76,0.00,,CLR,0.00,VWS V14.01,2013-02-27 14:35:00,
2013-02-27 09:40:00,46.2,38.8,29.74,WSW,248,10.1,10.1,75,0.00,,CLR,0.00,VWS V14.01,2013-02-27 14:40:00,
2013-02-27 09:45:00,46.4,38.6,29.74,WSW,248,7.6,7.6,74,0.00,,CLR,0.00,VWS V14.01,2013-02-27 14:45:00,
2013-02-27 09:50:00,46.8,38.9,29.74,WSW,248,11.0,11.0,74,0.00,,CLR,0.00,VWS V14.01,2013-02-27 14:50:00,
2013-02-27 09:55:00,47.5,39.6,29.74,WSW,248,9.6,9.6,74,0.00,,CLR,0.00,VWS V14.01,2013-02-27 14:55:00,
2013-02-27 10:00:00,47.8,40.0,29.74,West,270,7.8,7.8,74,0.00,,CLR,0.00,VWS V14.01,2013-02-27 15:00:00,
2013-02-27 10:05:00,47.3,39.1,29.74,WSW,248,4.3,4.3,73,0.00,,CLR,0.00,VWS V14.01,2013-02-27 15:05:00,
2013-02-27 10:10:00,48.2,40.0,29.74,WSW,248,4.9,4.9,73,0.00,,CLR,0.00,VWS V14.01,2013-02-27 15:10:00,
2013-02-27 10:15:00,48.0,39.8,29.74,West,270,6.0,6.0,73,0.00,,CLR,0.00,VWS V14.01,2013-02-27 15:15:00,
2013-02-27 10:20:00,48.0,39.8,29.74,West,270,6.3,6.3,73,0.00,,CLR,0.00,VWS V14.01,2013-02-27 15:20:00,
2013-02-27 10:25:00,48.7,40.5,29.74,SSW,202,3.8,3.8,73,0.00,,CLR,0.00,VWS V14.01,2013-02-27 15:25:00,
2013-02-27 10:30:00,48.4,39.8,29.74,WSW,248,8.1,8.1,72,0.00,,CLR,0.00,VWS V14.01,2013-02-27 15:30:00,
2013-02-27 10:36:00,48.4,39.8,29.74,WSW,248,4.9,4.9,72,0.00,,CLR,0.00,VWS V14.01,2013-02-27 15:36:00,
2013-02-27 10:41:00,48.9,40.3,29.74,WSW,248,7.4,7.4,72,0.00,,CLR,0.00,VWS V14.01,2013-02-27 15:41:00,
2013-02-27 10:46:00,49.3,40.7,29.74,West,270,4.0,4.0,72,0.00,,CLR,0.00,VWS V14.01,2013-02-27 15:46:00,
2013-02-27 10:51:00,49.5,40.5,29.74,WSW,248,2.0,2.0,71,0.00,,CLR,0.00,VWS V14.01,2013-02-27 15:51:00,
2013-02-27 10:56:00,50.2,41.2,29.74,West,270,6.3,6.3,71,0.00,,CLR,0.00,VWS V14.01,2013-02-27 15:56:00,
2013-02-27 11:01:00,49.3,39.9,29.74,West,270,5.8,5.8,70,0.00,,CLR,0.00,VWS V14.01,2013-02-27 16:01:00,
2013-02-27 11:06:00,50.4,40.6,29.74,SW,225,6.0,6.0,69,0.00,,CLR,0.00,VWS V14.01,2013-02-27 16:06:00,
2013-02-27 11:11:00,50.2,40.0,29.74,WSW,248,6.0,6.0,68,0.00,,CLR,0.00,VWS V14.01,2013-02-27 16:11:00,
2013-02-27 11:16:00,50.0,39.9,29.74,SW,225,5.4,5.4,68,0.00,,CLR,0.00,VWS V14.01,2013-02-27 16:16:00,
2013-02-27 11:21:00,50.2,39.7,29.74,SW,225,5.4,5.4,67,0.00,,CLR,0.00,VWS V14.01,2013-02-27 16:21:00,
2013-02-27 11:26:00,50.7,39.8,29.74,West,270,5.8,5.8,66,0.00,,CLR,0.00,VWS V14.01,2013-02-27 16:26:00,
2013-02-27 11:31:00,51.1,40.1,29.74,WSW,248,4.9,4.9,66,0.00,,CLR,0.00,VWS V14.01,2013-02-27 16:31:00,
2013-02-27 11:36:00,51.6,40.2,29.74,WSW,248,6.0,6.0,65,0.00,,CLR,0.00,VWS V14.01,2013-02-27 16:36:00,
2013-02-27 11:41:00,51.6,40.2,29.74,SSW,202,5.6,5.6,65,0.00,,CLR,0.00,VWS V14.01,2013-02-27 16:41:00,
2013-02-27 11:46:00,50.9,39.2,29.74,SSW,202,7.4,7.4,64,0.00,,CLR,0.00,VWS V14.01,2013-02-27 16:46:00,
2013-02-27 11:51:00,51.6,39.8,29.71,West,270,7.6,7.6,64,0.00,,CLR,0.00,VWS V14.01,2013-02-27 16:51:00,
2013-02-27 11:56:00,52.3,40.1,29.71,SSW,202,7.6,7.6,63,0.00,,CLR,0.00,VWS V14.01,2013-02-27 16:56:00,
2013-02-27 12:01:00,52.7,40.5,29.71,SSW,202,7.6,7.6,63,0.00,,CLR,0.00,VWS V14.01,2013-02-27 17:01:00,
2013-02-27 12:07:00,51.6,39.5,29.74,West,270,6.5,6.5,63,0.00,,CLR,0.00,VWS V14.01,2013-02-27 17:07:00,
2013-02-27 12:12:00,52.2,39.5,29.74,WSW,248,5.6,5.6,62,0.00,,CLR,0.00,VWS V14.01,2013-02-27 17:12:00,
2013-02-27 12:17:00,53.4,40.7,29.74,SW,225,4.9,4.9,62,0.00,,CLR,0.00,VWS V14.01,2013-02-27 17:17:00,
2013-02-27 12:22:00,52.7,40.1,29.74,SSW,202,3.8,3.8,62,0.00,,CLR,0.00,VWS V14.01,2013-02-27 17:22:00,
2013-02-27 12:27:00,52.7,39.6,29.74,SSW,202,10.5,10.5,61,0.00,,CLR,0.00,VWS V14.01,2013-02-27 17:27:00,
2013-02-27 12:32:00,53.2,40.2,29.74,SSE,158,6.3,6.3,61,0.00,,CLR,0.00,VWS V14.01,2013-02-27 17:32:00,
2013-02-27 12:37:00,53.1,40.0,29.74,SW,225,11.9,11.9,61,0.00,,CLR,0.00,VWS V14.01,2013-02-27 17:37:00,
2013-02-27 12:42:00,52.3,39.3,29.74,SW,225,6.3,6.3,61,0.00,,CLR,0.00,VWS V14.01,2013-02-27 17:42:00,
2013-02-27 12:47:00,53.2,40.2,29.74,SW,225,5.4,5.4,61,0.00,,CLR,0.00,VWS V14.01,2013-02-27 17:47:00,
2013-02-27 12:52:00,52.5,35.9,29.71,West,270,7.4,7.4,53,0.00,,CLR,0.00,VWS V14.01,2013-02-27 17:52:00,
2013-02-27 12:57:00,52.9,36.2,29.71,West,270,7.4,7.4,53,0.00,,CLR,0.00,VWS V14.01,2013-02-27 17:57:00,
2013-02-27 13:02:00,52.9,35.3,29.71,SW,225,7.4,7.4,51,0.00,,CLR,0.00,VWS V14.01,2013-02-27 18:02:00,
2013-02-27 13:07:00,52.9,33.7,29.71,SW,225,9.8,9.8,48,0.00,,CLR,0.00,VWS V14.01,2013-02-27 18:07:00,
2013-02-27 13:12:00,53.2,34.1,29.71,SW,225,7.6,7.6,48,0.00,,CLR,0.00,VWS V14.01,2013-02-27 18:12:00,
2013-02-27 13:17:00,53.1,32.8,29.71,WNW,292,7.8,7.8,46,0.00,,CLR,0.00,VWS V14.01,2013-02-27 18:17:00,
2013-02-27 13:22:00,53.8,33.0,29.71,SSW,202,10.5,10.5,45,0.00,,CLR,0.00,VWS V14.01,2013-02-27 18:22:00,
2013-02-27 13:27:00,53.4,31.5,29.71,SW,225,8.1,8.1,43,0.00,,CLR,0.00,VWS V14.01,2013-02-27 18:27:00,
2013-02-27 13:33:00,53.4,31.5,29.71,WSW,248,7.6,7.6,43,0.00,,FEW039,0.00,VWS V14.01,2013-02-27 18:33:00,
2013-02-27 13:38:00,54.1,32.2,29.71,SW,225,9.6,9.6,43,0.00,,FEW039,0.00,VWS V14.01,2013-02-27 18:38:00,
2013-02-27 13:43:00,53.8,31.2,29.71,SSW,202,10.3,10.3,42,0.00,,FEW039,0.00,VWS V14.01,2013-02-27 18:43:00,
2013-02-27 13:48:00,53.8,31.8,29.71,WSW,248,8.7,8.7,43,0.00,,FEW039,0.00,VWS V14.01,2013-02-27 18:48:00,
2013-02-27 13:53:00,54.5,31.9,29.71,SSW,202,5.4,5.4,42,0.00,,FEW039,0.00,VWS V14.01,2013-02-27 18:53:00,
2013-02-27 13:58:00,54.9,32.2,29.71,SSW,202,8.7,8.7,42,0.00,,FEW039,0.00,VWS V14.01,2013-02-27 18:58:00,
2013-02-27 14:03:00,54.0,31.4,29.71,SSW,202,8.1,8.1,42,0.00,,FEW039,0.00,VWS V14.01,2013-02-27 19:03:00,
2013-02-27 14:08:00,54.5,31.9,29.71,WSW,248,5.4,5.4,42,0.00,,FEW039,0.00,VWS V14.01,2013-02-27 19:08:00,
2013-02-27 14:13:00,55.0,32.4,29.71,WSW,248,7.4,7.4,42,0.00,,FEW039,0.00,VWS V14.01,2013-02-27 19:13:00,
2013-02-27 14:18:00,54.1,31.6,29.71,SSW,202,5.4,5.4,42,0.00,,FEW039,0.00,VWS V14.01,2013-02-27 19:18:00,
2013-02-27 14:23:00,55.0,32.4,29.71,SSW,202,8.5,8.5,42,0.00,,FEW039,0.00,VWS V14.01,2013-02-27 19:23:00,
2013-02-27 14:28:00,54.5,31.9,29.71,WSW,248,12.5,12.5,42,0.00,,FEW039,0.00,VWS V14.01,2013-02-27 19:28:00,
2013-02-27 14:33:00,54.7,32.1,29.71,WSW,248,8.7,8.7,42,0.00,,FEW039,0.00,VWS V14.01,2013-02-27 19:33:00,
2013-02-27 14:38:00,56.1,32.8,29.71,WSW,248,4.3,4.3,41,0.00,,FEW039,0.00,VWS V14.01,2013-02-27 19:38:00,
2013-02-27 14:43:00,55.8,32.4,29.71,WNW,292,8.7,8.7,41,0.00,,CLR,0.00,VWS V14.01,2013-02-27 19:43:00,
2013-02-27 14:48:00,55.0,32.4,29.71,West,270,8.1,8.1,42,0.00,,CLR,0.00,VWS V14.01,2013-02-27 19:48:00,
2013-02-27 14:54:00,55.4,32.1,29.68,WSW,248,4.9,4.9,41,0.00,,CLR,0.00,VWS V14.01,2013-02-27 19:54:00,
2013-02-27 14:58:00,54.5,31.9,29.68,WSW,248,5.6,5.6,42,0.00,,CLR,0.00,VWS V14.01,2013-02-27 19:58:00,
2013-02-27 15:04:00,55.6,32.3,29.68,WNW,292,10.5,10.5,41,0.00,,CLR,0.00,VWS V14.01,2013-02-27 20:04:00,
2013-02-27 15:09:00,54.9,32.2,29.68,WSW,248,12.3,12.3,42,0.00,,CLR,0.00,VWS V14.01,2013-02-27 20:09:00,
2013-02-27 15:14:00,55.8,32.4,29.68,SSW,202,8.1,8.1,41,0.00,,CLR,0.00,VWS V14.01,2013-02-27 20:14:00,
2013-02-27 15:19:00,55.2,32.5,29.68,WSW,248,6.5,6.5,42,0.00,,CLR,0.00,VWS V14.01,2013-02-27 20:19:00,
2013-02-27 15:24:00,55.6,32.3,29.68,South,180,11.0,11.0,41,0.00,,CLR,0.00,VWS V14.01,2013-02-27 20:24:00,
2013-02-27 15:29:00,56.3,32.9,29.68,SW,225,7.4,7.4,41,0.00,,CLR,0.00,VWS V14.01,2013-02-27 20:29:00,
2013-02-27 15:34:00,55.9,32.6,29.68,SW,225,10.3,10.3,41,0.00,,CLR,0.00,VWS V14.01,2013-02-27 20:34:00,
2013-02-27 15:39:00,56.1,32.8,29.68,SW,225,4.9,4.9,41,0.00,,CLR,0.00,VWS V14.01,2013-02-27 20:39:00,
2013-02-27 15:44:00,56.8,33.4,29.68,SSW,202,5.6,5.6,41,0.00,,CLR,0.00,VWS V14.01,2013-02-27 20:44:00,
2013-02-27 15:49:00,56.7,33.2,29.68,WSW,248,6.5,6.5,41,0.00,,CLR,0.00,VWS V14.01,2013-02-27 20:49:00,
2013-02-27 15:54:00,56.5,33.1,29.68,SSW,202,6.3,6.3,41,0.00,,CLR,0.00,VWS V14.01,2013-02-27 20:54:00,
2013-02-27 15:59:00,57.4,33.9,29.68,WSW,248,7.4,7.4,41,0.00,,CLR,0.00,VWS V14.01,2013-02-27 20:59:00,
2013-02-27 16:04:00,56.8,33.4,29.68,SW,225,9.2,9.2,41,0.00,,CLR,0.00,VWS V14.01,2013-02-27 21:04:00,
2013-02-27 16:09:00,56.3,32.9,29.68,SW,225,7.4,7.4,41,0.00,,CLR,0.00,VWS V14.01,2013-02-27 21:09:00,
2013-02-27 16:14:00,56.7,33.2,29.68,SSW,202,8.1,8.1,41,0.00,,CLR,0.00,VWS V14.01,2013-02-27 21:14:00,
2013-02-27 16:19:00,57.2,33.7,29.68,WSW,248,6.5,6.5,41,0.00,,CLR,0.00,VWS V14.01,2013-02-27 21:19:00,
2013-02-27 16:24:00,57.2,33.7,29.68,SSW,202,8.1,8.1,41,0.00,,CLR,0.00,VWS V14.01,2013-02-27 21:24:00,
2013-02-27 16:29:00,57.4,33.9,29.68,SW,225,4.3,4.3,41,0.00,,CLR,0.00,VWS V14.01,2013-02-27 21:29:00,
2013-02-27 16:34:00,57.0,33.6,29.68,SSW,202,7.4,7.4,41,0.00,,CLR,0.00,VWS V14.01,2013-02-27 21:34:00,
2013-02-27 16:39:00,57.2,33.7,29.68,SSW,202,7.4,7.4,41,0.00,,CLR,0.00,VWS V14.01,2013-02-27 21:39:00,
2013-02-27 16:45:00,57.4,33.9,29.68,WSW,248,7.8,7.8,41,0.00,,CLR,0.00,VWS V14.01,2013-02-27 21:45:00,
2013-02-27 16:50:00,56.8,33.4,29.68,WSW,248,8.5,8.5,41,0.00,,CLR,0.00,VWS V14.01,2013-02-27 21:50:00,
2013-02-27 16:55:00,57.2,33.7,29.68,West,270,6.3,6.3,41,0.00,,CLR,0.00,VWS V14.01,2013-02-27 21:55:00,
2013-02-27 17:00:00,57.0,33.6,29.68,West,270,4.0,4.0,41,0.00,,CLR,0.00,VWS V14.01,2013-02-27 22:00:00,
2013-02-27 17:05:00,56.8,33.4,29.68,West,270,5.4,5.4,41,0.00,,CLR,0.00,VWS V14.01,2013-02-27 22:05:00,
2013-02-27 17:10:00,56.8,33.4,29.68,West,270,5.6,5.6,41,0.00,,CLR,0.00,VWS V14.01,2013-02-27 22:10:00,
2013-02-27 17:15:00,57.0,33.6,29.68,SSW,202,4.3,4.3,41,0.00,,CLR,0.00,VWS V14.01,2013-02-27 22:15:00,
2013-02-27 17:20:00,57.2,33.7,29.68,West,270,2.2,2.2,41,0.00,,CLR,0.00,VWS V14.01,2013-02-27 22:20:00,
2013-02-27 17:25:00,56.8,33.4,29.68,WSW,248,4.0,4.0,41,0.00,,CLR,0.00,VWS V14.01,2013-02-27 22:25:00,
2013-02-27 17:30:00,56.5,33.1,29.68,SW,225,3.6,3.6,41,0.00,,CLR,0.00,VWS V14.01,2013-02-27 22:30:00,
2013-02-27 17:35:00,56.5,33.1,29.65,SSW,202,5.4,5.4,41,0.00,,CLR,0.00,VWS V14.01,2013-02-27 22:35:00,
2013-02-27 17:40:00,56.3,32.9,29.65,SW,225,4.3,4.3,41,0.00,,CLR,0.00,VWS V14.01,2013-02-27 22:40:00,
2013-02-27 17:45:00,55.9,32.6,29.65,WSW,248,4.9,4.9,41,0.00,,CLR,0.00,VWS V14.01,2013-02-27 22:45:00,
2013-02-27 17:50:00,55.9,32.6,29.65,WSW,248,5.6,5.6,41,0.00,,CLR,0.00,VWS V14.01,2013-02-27 22:50:00,
2013-02-27 17:55:00,55.4,32.1,29.65,WSW,248,3.1,3.1,41,0.00,,CLR,0.00,VWS V14.01,2013-02-27 22:55:00,
2013-02-27 18:01:00,55.0,32.4,29.65,WSW,248,4.3,4.3,42,0.00,,CLR,0.00,VWS V14.01,2013-02-27 23:01:00,
2013-02-27 18:06:00,54.7,32.1,29.68,WSW,248,3.6,3.6,42,0.00,,CLR,0.00,VWS V14.01,2013-02-27 23:06:00,
2013-02-27 18:11:00,54.7,32.1,29.68,SW,225,3.4,3.4,42,0.00,,CLR,0.00,VWS V14.01,2013-02-27 23:11:00,
2013-02-27 18:16:00,53.1,30.6,29.68,WSW,248,2.5,2.5,42,0.00,,CLR,0.00,VWS V14.01,2013-02-27 23:16:00,
2013-02-27 18:21:00,53.6,31.1,29.68,SSW,202,4.3,4.3,42,0.00,,CLR,0.00,VWS V14.01,2013-02-27 23:21:00,
2013-02-27 18:26:00,53.4,30.9,29.68,WSW,248,4.0,4.0,42,0.00,,CLR,0.00,VWS V14.01,2013-02-27 23:26:00,
2013-02-27 18:31:00,53.1,30.6,29.68,WSW,248,3.1,3.1,42,0.00,,CLR,0.00,VWS V14.01,2013-02-27 23:31:00,
2013-02-27 18:36:00,52.9,30.4,29.68,SW,225,2.9,2.9,42,0.00,,CLR,0.00,VWS V14.01,2013-02-27 23:36:00,
2013-02-27 18:41:00,52.5,30.1,29.68,WSW,248,2.5,2.5,42,0.00,,CLR,0.00,VWS V14.01,2013-02-27 23:41:00,
2013-02-27 18:46:00,52.7,30.3,29.68,SW,225,3.8,3.8,42,0.00,,CLR,0.00,VWS V14.01,2013-02-27 23:46:00,
2013-02-27 18:51:00,52.3,30.0,29.68,WSW,248,2.9,2.9,42,0.00,,CLR,0.00,VWS V14.01,2013-02-27 23:51:00,
2013-02-27 18:57:00,52.0,29.6,29.68,WSW,248,3.4,3.4,42,0.00,,CLR,0.00,VWS V14.01,2013-02-27 23:57:00,
2013-02-27 19:02:00,52.3,30.0,29.68,SSW,202,3.6,3.6,42,0.00,,CLR,0.00,VWS V14.01,2013-02-28 00:02:00,
2013-02-27 19:07:00,51.6,29.9,29.68,SW,225,2.7,2.7,43,0.00,,CLR,0.00,VWS V14.01,2013-02-28 00:07:00,
2013-02-27 19:12:00,51.3,29.5,29.68,SSW,202,2.9,2.9,43,0.00,,CLR,0.00,VWS V14.01,2013-02-28 00:12:00,
2013-02-27 19:17:00,50.7,29.1,29.68,SSW,202,1.6,1.6,43,0.00,,CLR,0.00,VWS V14.01,2013-02-28 00:17:00,
2013-02-27 19:22:00,50.0,28.4,29.65,SW,225,2.7,2.7,43,0.00,,CLR,0.00,VWS V14.01,2013-02-28 00:22:00,
2013-02-27 19:27:00,50.2,28.6,29.65,SW,225,3.4,3.4,43,0.00,,CLR,0.00,VWS V14.01,2013-02-28 00:27:00,
2013-02-27 19:32:00,50.7,29.1,29.65,WSW,248,4.0,4.0,43,0.00,,CLR,0.00,VWS V14.01,2013-02-28 00:32:00,
2013-02-27 19:37:00,49.8,28.2,29.68,WSW,248,4.0,4.0,43,0.00,,CLR,0.00,VWS V14.01,2013-02-28 00:37:00,
2013-02-27 19:42:00,50.5,28.9,29.68,WSW,248,3.4,3.4,43,0.00,,CLR,0.00,VWS V14.01,2013-02-28 00:42:00,
2013-02-27 19:47:00,50.0,28.4,29.68,WSW,248,2.5,2.5,43,0.00,,CLR,0.00,VWS V14.01,2013-02-28 00:47:00,
2013-02-27 19:52:00,50.9,29.2,29.68,SW,225,3.8,3.8,43,0.00,,CLR,0.00,VWS V14.01,2013-02-28 00:52:00,
2013-02-27 19:57:00,50.0,28.4,29.68,West,270,2.9,2.9,43,0.00,,CLR,0.00,VWS V14.01,2013-02-28 00:57:00,
2013-02-27 20:03:00,49.6,28.1,29.68,WSW,248,1.6,1.6,43,0.00,,CLR,0.00,VWS V14.01,2013-02-28 01:03:00,
2013-02-27 20:08:00,50.2,28.6,29.68,SSW,202,3.8,3.8,43,0.00,,CLR,0.00,VWS V14.01,2013-02-28 01:08:00,
2013-02-27 20:13:00,50.0,28.4,29.68,WSW,248,4.3,4.3,43,0.00,,CLR,0.00,VWS V14.01,2013-02-28 01:13:00,
2013-02-27 20:18:00,50.9,29.2,29.68,West,270,5.4,5.4,43,0.00,,CLR,0.00,VWS V14.01,2013-02-28 01:18:00,
2013-02-27 20:23:00,50.7,29.1,29.65,WSW,248,6.0,6.0,43,0.00,,CLR,0.00,VWS V14.01,2013-02-28 01:23:00,
2013-02-27 20:28:00,50.7,29.1,29.65,WSW,248,4.0,4.0,43,0.00,,CLR,0.00,VWS V14.01,2013-02-28 01:28:00,
2013-02-27 20:33:00,49.8,28.2,29.65,WSW,248,3.6,3.6,43,0.00,,CLR,0.00,VWS V14.01,2013-02-28 01:33:00,
2013-02-27 20:38:00,50.5,28.9,29.71,WSW,248,5.6,5.6,43,0.00,,CLR,0.00,VWS V14.01,2013-02-28 01:38:00,
2013-02-27 20:44:00,50.2,28.6,29.71,SW,225,5.6,5.6,43,0.00,,CLR,0.00,VWS V14.01,2013-02-28 01:44:00,
2013-02-27 20:49:00,49.8,28.2,29.71,WSW,248,5.4,5.4,43,0.00,,CLR,0.00,VWS V14.01,2013-02-28 01:49:00,
2013-02-27 20:54:00,49.6,28.1,29.68,SW,225,9.8,9.8,43,0.00,,CLR,0.00,VWS V14.01,2013-02-28 01:54:00,
2013-02-27 20:59:00,50.4,28.7,29.68,WSW,248,7.4,7.4,43,0.00,,CLR,0.00,VWS V14.01,2013-02-28 01:59:00,
2013-02-27 21:04:00,50.2,28.6,29.68,West,270,5.4,5.4,43,0.00,,CLR,0.00,VWS V14.01,2013-02-28 02:04:00,
2013-02-27 21:09:00,50.0,28.4,29.68,SW,225,8.1,8.1,43,0.00,,CLR,0.00,VWS V14.01,2013-02-28 02:09:00,
2013-02-27 21:14:00,50.0,28.4,29.68,WSW,248,4.0,4.0,43,0.00,,CLR,0.00,VWS V14.01,2013-02-28 02:14:00,
2013-02-27 21:19:00,50.4,28.7,29.68,West,270,8.5,8.5,43,0.00,,CLR,0.00,VWS V14.01,2013-02-28 02:19:00,
2013-02-27 21:24:00,50.2,28.6,29.65,WSW,248,8.5,8.5,43,0.00,,CLR,0.00,VWS V14.01,2013-02-28 02:24:00,
2013-02-27 21:29:00,50.5,28.9,29.65,WSW,248,6.3,6.3,43,0.00,,CLR,0.00,VWS V14.01,2013-02-28 02:29:00,
2013-02-27 21:34:00,50.5,28.9,29.65,WSW,248,6.3,6.3,43,0.00,,CLR,0.00,VWS V14.01,2013-02-28 02:34:00,
2013-02-27 21:39:00,50.4,28.7,29.65,WSW,248,8.5,8.5,43,0.00,,CLR,0.00,VWS V14.01,2013-02-28 02:39:00,
2013-02-27 21:44:00,50.7,29.1,29.65,WSW,248,5.8,5.8,43,0.00,,CLR,0.00,VWS V14.01,2013-02-28 02:44:00,
2013-02-27 21:49:00,50.7,29.1,29.65,SW,225,10.1,10.1,43,0.00,,CLR,0.00,VWS V14.01,2013-02-28 02:49:00,
2013-02-27 21:54:00,50.4,28.7,29.68,WSW,248,8.7,8.7,43,0.00,,CLR,0.00,VWS V14.01,2013-02-28 02:54:00,
2013-02-27 21:59:00,50.5,28.9,29.68,WSW,248,7.6,7.6,43,0.00,,CLR,0.00,VWS V14.01,2013-02-28 02:59:00,
2013-02-27 22:04:00,50.4,28.7,29.68,WSW,248,8.5,8.5,43,0.00,,CLR,0.00,VWS V14.01,2013-02-28 03:04:00,
2013-02-27 22:09:00,50.9,29.2,29.68,WSW,248,10.1,10.1,43,0.00,,CLR,0.00,VWS V14.01,2013-02-28 03:09:00,
2013-02-27 22:14:00,50.5,28.9,29.68,WSW,248,8.7,8.7,43,0.00,,CLR,0.00,VWS V14.01,2013-02-28 03:14:00,
2013-02-27 22:19:00,50.7,29.1,29.65,WSW,248,10.3,10.3,43,0.00,,CLR,0.00,VWS V14.01,2013-02-28 03:19:00,
2013-02-27 22:25:00,50.5,28.9,29.65,WSW,248,7.6,7.6,43,0.00,,CLR,0.00,VWS V14.01,2013-02-28 03:25:00,
2013-02-27 22:30:00,50.2,28.6,29.65,WSW,248,9.8,9.8,43,0.00,,CLR,0.00,VWS V14.01,2013-02-28 03:30:00,
2013-02-27 22:35:00,50.4,28.7,29.65,WSW,248,6.3,6.3,43,0.00,,CLR,0.00,VWS V14.01,2013-02-28 03:35:00,
2013-02-27 22:40:00,50.2,28.6,29.65,WSW,248,7.6,7.6,43,0.00,,CLR,0.00,VWS V14.01,2013-02-28 03:40:00,
2013-02-27 22:45:00,50.2,28.6,29.65,WNW,292,8.7,8.7,43,0.00,,CLR,0.00,VWS V14.01,2013-02-28 03:45:00,
2013-02-27 22:50:00,49.5,27.9,29.68,WSW,248,3.6,3.6,43,0.00,,CLR,0.00,VWS V14.01,2013-02-28 03:50:00,
2013-02-27 22:55:00,50.4,28.7,29.68,West,270,5.6,5.6,43,0.00,,CLR,0.00,VWS V14.01,2013-02-28 03:55:00,
2013-02-27 23:00:00,49.6,28.1,29.68,WSW,248,5.4,5.4,43,0.00,,CLR,0.00,VWS V14.01,2013-02-28 04:00:00,
2013-02-27 23:05:00,49.6,28.1,29.65,WSW,248,4.0,4.0,43,0.00,,CLR,0.00,VWS V14.01,2013-02-28 04:05:00,
2013-02-27 23:10:00,48.9,27.4,29.65,West,270,3.1,3.1,43,0.00,,CLR,0.00,VWS V14.01,2013-02-28 04:10:00,
2013-02-27 23:15:00,49.3,27.8,29.65,West,270,7.6,7.6,43,0.00,,CLR,0.00,VWS V14.01,2013-02-28 04:15:00,
2013-02-27 23:20:00,50.0,28.4,29.65,WSW,248,4.0,4.0,43,0.00,,CLR,0.00,VWS V14.01,2013-02-28 04:20:00,
2013-02-27 23:25:00,48.7,27.3,29.65,West,270,4.3,4.3,43,0.00,,CLR,0.00,VWS V14.01,2013-02-28 04:25:00,
2013-02-27 23:30:00,49.3,27.8,29.65,West,270,4.0,4.0,43,0.00,,CLR,0.00,VWS V14.01,2013-02-28 04:30:00,
2013-02-27 23:35:00,49.1,27.6,29.68,West,270,5.6,5.6,43,0.00,,CLR,0.00,VWS V14.01,2013-02-28 04:35:00,
2013-02-27 23:40:00,48.9,27.4,29.68,West,270,5.6,5.6,43,0.00,,CLR,0.00,VWS V14.01,2013-02-28 04:40:00,
2013-02-27 23:45:00,48.7,27.3,29.68,SSW,202,7.2,7.2,43,0.00,,CLR,0.00,VWS V14.01,2013-02-28 04:45:00,
2013-02-27 23:50:00,48.6,27.1,29.68,SW,225,3.1,3.1,43,0.00,,CLR,0.00,VWS V14.01,2013-02-28 04:50:00,
2013-02-27 23:55:00,48.7,27.3,29.68,WSW,248,5.6,5.6,43,0.00,,CLR,0.00,VWS V14.01,2013-02-28 04:55:00,